sensor_id;sensor_type;location;lat;lon;timestamp;pressure;altitude;pressure_sealevel;temperature;humidity
13068;BME280;6600;51.362;6.686;2023-02-10T00:01:06;103130.25;;;4.97;100.00
13068;BME280;6600;51.362;6.686;2023-02-10T00:03:32;103135.56;;;4.97;100.00
13068;BME280;6600;51.362;6.686;2023-02-10T00:05:58;103131.34;;;4.94;100.00
13068;BME280;6600;51.362;6.686;2023-02-10T00:08:24;103137.50;;;4.95;100.00
13068;BME280;6600;51.362;6.686;2023-02-10T00:10:49;103134.97;;;4.93;100.00
13068;BME280;6600;51.362;6.686;2023-02-10T00:13:14;103141.13;;;4.94;100.00
13068;BME280;6600;51.362;6.686;2023-02-10T00:15:40;103152.59;;;4.94;100.00
13068;BME280;6600;51.362;6.686;2023-02-10T00:18:05;103152.34;;;4.97;100.00
13068;BME280;6600;51.362;6.686;2023-02-10T00:20:31;103147.66;;;5.01;100.00
13068;BME280;6600;51.362;6.686;2023-02-10T00:22:56;103142.59;;;4.98;100.00
13068;BME280;6600;51.362;6.686;2023-02-10T00:25:21;103143.28;;;5.00;100.00
13068;BME280;6600;51.362;6.686;2023-02-10T00:27:47;103149.69;;;4.97;100.00
13068;BME280;6600;51.362;6.686;2023-02-10T00:30:12;103140.63;;;5.00;100.00
13068;BME280;6600;51.362;6.686;2023-02-10T00:32:37;103142.59;;;4.98;100.00
13068;BME280;6600;51.362;6.686;2023-02-10T00:35:08;103154.06;;;4.98;100.00
13068;BME280;6600;51.362;6.686;2023-02-10T00:37:34;103150.06;;;5.04;100.00
13068;BME280;6600;51.362;6.686;2023-02-10T00:39:59;103156.13;;;5.06;100.00
13068;BME280;6600;51.362;6.686;2023-02-10T00:42:25;103149.97;;;5.05;100.00
13068;BME280;6600;51.362;6.686;2023-02-10T00:44:50;103149.09;;;5.05;100.00
13068;BME280;6600;51.362;6.686;2023-02-10T00:47:16;103151.06;;;5.03;100.00
13068;BME280;6600;51.362;6.686;2023-02-10T00:49:42;103148.13;;;4.95;100.00
13068;BME280;6600;51.362;6.686;2023-02-10T00:52:08;103145.25;;;4.98;100.00
13068;BME280;6600;51.362;6.686;2023-02-10T00:54:33;103149.09;;;4.94;100.00
13068;BME280;6600;51.362;6.686;2023-02-10T00:56:59;103146.94;;;4.99;100.00
13068;BME280;6600;51.362;6.686;2023-02-10T00:59:24;103154.41;;;4.94;100.00
13068;BME280;6600;51.362;6.686;2023-02-10T01:01:50;103148.13;;;4.95;100.00
13068;BME280;6600;51.362;6.686;2023-02-10T01:04:15;103153.44;;;4.95;100.00
13068;BME280;6600;51.362;6.686;2023-02-10T01:06:41;103148.13;;;4.95;100.00
13068;BME280;6600;51.362;6.686;2023-02-10T01:09:06;103151.50;;;4.97;100.00
13068;BME280;6600;51.362;6.686;2023-02-10T01:11:32;103157.06;;;4.94;100.00
13068;BME280;6600;51.362;6.686;2023-02-10T01:13:57;103158.16;;;4.91;100.00
13068;BME280;6600;51.362;6.686;2023-02-10T01:16:22;103157.53;;;4.88;100.00
13068;BME280;6600;51.362;6.686;2023-02-10T01:18:48;103168.06;;;4.89;100.00
13068;BME280;6600;51.362;6.686;2023-02-10T01:21:15;103169.25;;;4.85;100.00
13068;BME280;6600;51.362;6.686;2023-02-10T01:23:41;103168.91;;;4.79;100.00
13068;BME280;6600;51.362;6.686;2023-02-10T01:26:08;103166.00;;;4.82;100.00
13068;BME280;6600;51.362;6.686;2023-02-10T01:28:33;103161.41;;;4.84;100.00
13068;BME280;6600;51.362;6.686;2023-02-10T01:31:04;103168.41;;;4.85;100.00
13068;BME280;6600;51.362;6.686;2023-02-10T01:33:29;103169.38;;;4.84;100.00
13068;BME280;6600;51.362;6.686;2023-02-10T01:35:55;103173.22;;;4.80;100.00
13068;BME280;6600;51.362;6.686;2023-02-10T01:38:20;103180.13;;;4.82;100.00
13068;BME280;6600;51.362;6.686;2023-02-10T01:40:48;103181.94;;;4.82;100.00
13068;BME280;6600;51.362;6.686;2023-02-10T01:43:15;103180.94;;;4.83;100.00
13068;BME280;6600;51.362;6.686;2023-02-10T01:45:40;103180.34;;;4.79;100.00
13068;BME280;6600;51.362;6.686;2023-02-10T01:48:08;103173.47;;;4.77;100.00
13068;BME280;6600;51.362;6.686;2023-02-10T01:50:45;103185.06;;;4.76;100.00
13068;BME280;6600;51.362;6.686;2023-02-10T01:53:13;103186.50;;;4.69;100.00
13068;BME280;6600;51.362;6.686;2023-02-10T01:55:41;103182.00;;;4.69;100.00
13068;BME280;6600;51.362;6.686;2023-02-10T01:58:10;103187.44;;;4.68;100.00
13068;BME280;6600;51.362;6.686;2023-02-10T02:00:36;103186.00;;;4.64;100.00
13068;BME280;6600;51.362;6.686;2023-02-10T02:03:02;103180.69;;;4.64;100.00
13068;BME280;6600;51.362;6.686;2023-02-10T02:05:35;103193.25;;;4.62;100.00
13068;BME280;6600;51.362;6.686;2023-02-10T02:08:12;103191.53;;;4.61;100.00
13068;BME280;6600;51.362;6.686;2023-02-10T02:13:30;103197.09;;;4.57;100.00
13068;BME280;6600;51.362;6.686;2023-02-10T02:16:15;103208.78;;;4.55;100.00
13068;BME280;6600;51.362;6.686;2023-02-10T02:19:01;103195.84;;;4.50;100.00
13068;BME280;6600;51.362;6.686;2023-02-10T02:27:34;103198.06;;;4.33;100.00
13068;BME280;6600;51.362;6.686;2023-02-10T02:30:35;103195.97;;;4.25;100.00
13068;BME280;6600;51.362;6.686;2023-02-10T02:33:14;103203.69;;;4.17;100.00
13068;BME280;6600;51.362;6.686;2023-02-10T02:36:34;103204.88;;;4.13;100.00
13068;BME280;6600;51.362;6.686;2023-02-10T02:38:41;103204.13;;;4.11;100.00
13068;BME280;6600;51.362;6.686;2023-02-10T02:41:07;103215.91;;;4.07;100.00
13068;BME280;6600;51.362;6.686;2023-02-10T02:43:33;103206.28;;;4.06;100.00
13068;BME280;6600;51.362;6.686;2023-02-10T02:46:15;103210.16;;;4.13;100.00
13068;BME280;6600;51.362;6.686;2023-02-10T02:48:59;103209.19;;;4.14;100.00
13068;BME280;6600;51.362;6.686;2023-02-10T02:54:13;103217.78;;;4.18;100.00
13068;BME280;6600;51.362;6.686;2023-02-10T02:59:20;103210.19;;;4.24;100.00
13068;BME280;6600;51.362;6.686;2023-02-10T03:01:52;103212.84;;;4.24;100.00
13068;BME280;6600;51.362;6.686;2023-02-10T03:04:20;103205.03;;;4.23;100.00
13068;BME280;6600;51.362;6.686;2023-02-10T03:06:45;103198.38;;;4.17;100.00
13068;BME280;6600;51.362;6.686;2023-02-10T03:09:12;103190.75;;;4.13;100.00
13068;BME280;6600;51.362;6.686;2023-02-10T03:11:37;103184.59;;;4.12;100.00
13068;BME280;6600;51.362;6.686;2023-02-10T03:14:03;103173.34;;;4.08;100.00
13068;BME280;6600;51.362;6.686;2023-02-10T03:16:28;103174.53;;;4.04;100.00
13068;BME280;6600;51.362;6.686;2023-02-10T03:18:53;103178.97;;;3.93;100.00
13068;BME280;6600;51.362;6.686;2023-02-10T03:21:19;103176.50;;;3.90;100.00
13068;BME280;6600;51.362;6.686;2023-02-10T03:23:44;103170.69;;;3.85;100.00
13068;BME280;6600;51.362;6.686;2023-02-10T03:26:10;103176.22;;;3.82;100.00
13068;BME280;6600;51.362;6.686;2023-02-10T03:28:35;103173.44;;;3.83;100.00
13068;BME280;6600;51.362;6.686;2023-02-10T03:31:02;103174.63;;;3.79;100.00
13068;BME280;6600;51.362;6.686;2023-02-10T03:33:28;103164.16;;;3.78;100.00
13068;BME280;6600;51.362;6.686;2023-02-10T03:35:53;103172.44;;;3.73;100.00
13068;BME280;6600;51.362;6.686;2023-02-10T03:38:19;103180.75;;;3.69;100.00
13068;BME280;6600;51.362;6.686;2023-02-10T03:40:44;103187.94;;;3.67;100.00
13068;BME280;6600;51.362;6.686;2023-02-10T03:43:13;103190.09;;;3.62;100.00
13068;BME280;6600;51.362;6.686;2023-02-10T03:45:38;103192.44;;;3.53;100.00
13068;BME280;6600;51.362;6.686;2023-02-10T03:48:04;103197.72;;;3.53;100.00
13068;BME280;6600;51.362;6.686;2023-02-10T03:50:29;103200.59;;;3.50;100.00
13068;BME280;6600;51.362;6.686;2023-02-10T03:52:55;103208.78;;;3.47;100.00
13068;BME280;6600;51.362;6.686;2023-02-10T03:55:20;103205.38;;;3.45;100.00
13068;BME280;6600;51.362;6.686;2023-02-10T03:57:46;103209.00;;;3.44;100.00
13068;BME280;6600;51.362;6.686;2023-02-10T04:00:12;103213.09;;;3.48;100.00
13068;BME280;6600;51.362;6.686;2023-02-10T04:02:38;103202.72;;;3.45;100.00
13068;BME280;6600;51.362;6.686;2023-02-10T04:05:03;103202.00;;;3.43;100.00
13068;BME280;6600;51.362;6.686;2023-02-10T04:07:29;103209.41;;;3.38;100.00
13068;BME280;6600;51.362;6.686;2023-02-10T04:09:54;103211.97;;;3.40;100.00
13068;BME280;6600;51.362;6.686;2023-02-10T04:12:19;103206.25;;;3.33;100.00
13068;BME280;6600;51.362;6.686;2023-02-10T04:14:45;103202.34;;;3.26;100.00
13068;BME280;6600;51.362;6.686;2023-02-10T04:17:10;103201.78;;;3.21;100.00
13068;BME280;6600;51.362;6.686;2023-02-10T04:19:35;103196.72;;;3.18;100.00
13068;BME280;6600;51.362;6.686;2023-02-10T04:22:01;103205.72;;;3.16;100.00
13068;BME280;6600;51.362;6.686;2023-02-10T04:24:26;103206.69;;;3.15;100.00
13068;BME280;6600;51.362;6.686;2023-02-10T04:26:51;103211.34;;;3.11;100.00
13068;BME280;6600;51.362;6.686;2023-02-10T04:29:17;103206.69;;;3.15;100.00
13068;BME280;6600;51.362;6.686;2023-02-10T04:31:42;103206.03;;;3.11;100.00
13068;BME280;6600;51.362;6.686;2023-02-10T04:34:07;103211.56;;;3.08;100.00
13068;BME280;6600;51.362;6.686;2023-02-10T04:36:33;103223.44;;;3.02;100.00
13068;BME280;6600;51.362;6.686;2023-02-10T04:38:58;103220.66;;;3.04;100.00
13068;BME280;6600;51.362;6.686;2023-02-10T04:41:23;103219.28;;;3.11;100.00
13068;BME280;6600;51.362;6.686;2023-02-10T04:43:49;103220.44;;;3.07;100.00
13068;BME280;6600;51.362;6.686;2023-02-10T04:46:14;103218.88;;;3.17;100.00
13068;BME280;6600;51.362;6.686;2023-02-10T04:48:40;103223.63;;;3.25;100.00
13068;BME280;6600;51.362;6.686;2023-02-10T04:51:06;103224.03;;;3.31;100.00
13068;BME280;6600;51.362;6.686;2023-02-10T04:53:32;103218.75;;;3.31;100.00
13068;BME280;6600;51.362;6.686;2023-02-10T04:55:57;103216.44;;;3.27;100.00
13068;BME280;6600;51.362;6.686;2023-02-10T04:58:23;103213.88;;;3.25;100.00
13068;BME280;6600;51.362;6.686;2023-02-10T05:00:48;103198.53;;;3.30;100.00
13068;BME280;6600;51.362;6.686;2023-02-10T05:03:13;103204.97;;;3.26;100.00
13068;BME280;6600;51.362;6.686;2023-02-10T05:05:39;103209.34;;;3.27;100.00
13068;BME280;6600;51.362;6.686;2023-02-10T05:08:04;103212.00;;;3.27;100.00
13068;BME280;6600;51.362;6.686;2023-02-10T05:10:30;103209.66;;;3.23;100.00
13068;BME280;6600;51.362;6.686;2023-02-10T05:12:55;103209.00;;;3.19;100.00
13068;BME280;6600;51.362;6.686;2023-02-10T05:15:20;103221.31;;;3.20;100.00
13068;BME280;6600;51.362;6.686;2023-02-10T05:17:46;103214.19;;;3.21;100.00
13068;BME280;6600;51.362;6.686;2023-02-10T05:20:11;103208.06;;;3.20;100.00
13068;BME280;6600;51.362;6.686;2023-02-10T05:22:38;103218.97;;;3.16;100.00
13068;BME280;6600;51.362;6.686;2023-02-10T05:25:04;103216.41;;;3.14;100.00
13068;BME280;6600;51.362;6.686;2023-02-10T05:27:30;103222.78;;;3.12;100.00
13068;BME280;6600;51.362;6.686;2023-02-10T05:29:55;103226.19;;;3.14;100.00
13068;BME280;6600;51.362;6.686;2023-02-10T05:32:20;103228.94;;;3.12;100.00
13068;BME280;6600;51.362;6.686;2023-02-10T05:34:45;103238.91;;;3.09;100.00
13068;BME280;6600;51.362;6.686;2023-02-10T05:37:11;103240.56;;;2.97;100.00
13068;BME280;6600;51.362;6.686;2023-02-10T05:39:36;103236.47;;;2.93;100.00
13068;BME280;6600;51.362;6.686;2023-02-10T05:42:01;103236.13;;;2.85;100.00
13068;BME280;6600;51.362;6.686;2023-02-10T05:44:28;103235.91;;;2.88;100.00
13068;BME280;6600;51.362;6.686;2023-02-10T05:46:54;103239.72;;;2.84;100.00
13068;BME280;6600;51.362;6.686;2023-02-10T05:49:19;103247.13;;;2.79;100.00
13068;BME280;6600;51.362;6.686;2023-02-10T05:51:45;103252.09;;;2.71;100.00
13068;BME280;6600;51.362;6.686;2023-02-10T05:54:11;103250.78;;;2.64;100.00
13068;BME280;6600;51.362;6.686;2023-02-10T05:56:36;103257.25;;;2.60;100.00
13068;BME280;6600;51.362;6.686;2023-02-10T05:59:03;103260.38;;;2.52;100.00
13068;BME280;6600;51.362;6.686;2023-02-10T06:01:28;103252.56;;;2.50;100.00
13068;BME280;6600;51.362;6.686;2023-02-10T06:03:54;103252.16;;;2.57;100.00
13068;BME280;6600;51.362;6.686;2023-02-10T06:06:19;103250.72;;;2.65;100.00
13068;BME280;6600;51.362;6.686;2023-02-10T06:08:45;103254.53;;;2.74;100.00
13068;BME280;6600;51.362;6.686;2023-02-10T06:11:10;103252.63;;;2.76;100.00
13068;BME280;6600;51.362;6.686;2023-02-10T06:13:36;103251.78;;;2.88;100.00
13068;BME280;6600;51.362;6.686;2023-02-10T06:16:01;103248.84;;;2.92;100.00
13068;BME280;6600;51.362;6.686;2023-02-10T06:18:28;103245.22;;;2.93;100.00
13068;BME280;6600;51.362;6.686;2023-02-10T06:20:53;103248.22;;;2.89;100.00
13068;BME280;6600;51.362;6.686;2023-02-10T06:23:19;103251.78;;;2.88;100.00
13068;BME280;6600;51.362;6.686;2023-02-10T06:25:45;103257.31;;;2.85;100.00
13068;BME280;6600;51.362;6.686;2023-02-10T06:28:11;103259.09;;;2.72;100.00
13068;BME280;6600;51.362;6.686;2023-02-10T06:30:36;103259.16;;;2.58;100.00
13068;BME280;6600;51.362;6.686;2023-02-10T06:33:02;103265.78;;;2.50;100.00
13068;BME280;6600;51.362;6.686;2023-02-10T06:35:27;103265.84;;;2.36;100.00
13068;BME280;6600;51.362;6.686;2023-02-10T06:37:53;103281.28;;;2.30;100.00
13068;BME280;6600;51.362;6.686;2023-02-10T06:40:18;103291.59;;;2.20;100.00
13068;BME280;6600;51.362;6.686;2023-02-10T06:42:44;103295.59;;;2.13;100.00
13068;BME280;6600;51.362;6.686;2023-02-10T06:45:09;103285.56;;;2.04;100.00
13068;BME280;6600;51.362;6.686;2023-02-10T06:47:35;103288.41;;;2.01;100.00
13068;BME280;6600;51.362;6.686;2023-02-10T06:50:01;103278.97;;;1.97;100.00
13068;BME280;6600;51.362;6.686;2023-02-10T06:52:27;103275.78;;;1.92;100.00
13068;BME280;6600;51.362;6.686;2023-02-10T06:54:52;103281.16;;;1.90;100.00
13068;BME280;6600;51.362;6.686;2023-02-10T06:57:18;103279.56;;;1.88;100.00
13068;BME280;6600;51.362;6.686;2023-02-10T06:59:43;103275.59;;;1.95;100.00
13068;BME280;6600;51.362;6.686;2023-02-10T07:02:12;103275.50;;;1.96;100.00
13068;BME280;6600;51.362;6.686;2023-02-10T07:04:37;103270.69;;;1.89;100.00
13068;BME280;6600;51.362;6.686;2023-02-10T07:07:03;103262.47;;;1.93;100.00
13068;BME280;6600;51.362;6.686;2023-02-10T07:09:28;103266.94;;;1.93;100.00
13068;BME280;6600;51.362;6.686;2023-02-10T07:11:54;103264.81;;;1.98;100.00
13068;BME280;6600;51.362;6.686;2023-02-10T07:14:19;103257.00;;;1.96;100.00
13068;BME280;6600;51.362;6.686;2023-02-10T07:16:45;103261.44;;;1.96;100.00
13068;BME280;6600;51.362;6.686;2023-02-10T07:19:10;103256.88;;;1.98;100.00
13068;BME280;6600;51.362;6.686;2023-02-10T07:21:35;103262.56;;;1.92;100.00
13068;BME280;6600;51.362;6.686;2023-02-10T07:24:03;103269.06;;;2.00;100.00
13068;BME280;6600;51.362;6.686;2023-02-10T07:26:29;103272.00;;;1.96;100.00
13068;BME280;6600;51.362;6.686;2023-02-10T07:28:54;103275.19;;;2.01;100.00
13068;BME280;6600;51.362;6.686;2023-02-10T07:31:20;103280.28;;;2.04;100.00
13068;BME280;6600;51.362;6.686;2023-02-10T07:33:45;103284.84;;;2.02;100.00
13068;BME280;6600;51.362;6.686;2023-02-10T07:36:11;103281.34;;;2.01;100.00
13068;BME280;6600;51.362;6.686;2023-02-10T07:38:36;103280.50;;;2.01;100.00
13068;BME280;6600;51.362;6.686;2023-02-10T07:41:03;103280.41;;;2.02;100.00
13068;BME280;6600;51.362;6.686;2023-02-10T07:43:29;103288.34;;;2.02;100.00
13068;BME280;6600;51.362;6.686;2023-02-10T07:45:54;103296.34;;;2.01;100.00
13068;BME280;6600;51.362;6.686;2023-02-10T07:48:20;103295.31;;;2.03;100.00
13068;BME280;6600;51.362;6.686;2023-02-10T07:50:48;103294.28;;;2.06;100.00
13068;BME280;6600;51.362;6.686;2023-02-10T07:53:15;103293.44;;;2.06;100.00
13068;BME280;6600;51.362;6.686;2023-02-10T07:55:40;103292.56;;;2.05;100.00
13068;BME280;6600;51.362;6.686;2023-02-10T07:58:06;103296.94;;;2.06;100.00
13068;BME280;6600;51.362;6.686;2023-02-10T08:00:33;103301.09;;;2.10;100.00
13068;BME280;6600;51.362;6.686;2023-02-10T08:02:58;103299.25;;;2.11;100.00
13068;BME280;6600;51.362;6.686;2023-02-10T08:05:24;103300.47;;;2.19;100.00
13068;BME280;6600;51.362;6.686;2023-02-10T08:07:49;103299.69;;;2.31;100.00
13068;BME280;6600;51.362;6.686;2023-02-10T08:10:15;103304.19;;;2.43;100.00
13068;BME280;6600;51.362;6.686;2023-02-10T08:12:40;103300.41;;;2.47;100.00
13068;BME280;6600;51.362;6.686;2023-02-10T08:15:07;103309.97;;;2.63;100.00
13068;BME280;6600;51.362;6.686;2023-02-10T08:17:33;103311.25;;;2.70;100.00
13068;BME280;6600;51.362;6.686;2023-02-10T08:19:58;103312.75;;;2.74;100.00
13068;BME280;6600;51.362;6.686;2023-02-10T08:22:24;103317.34;;;2.84;100.00
13068;BME280;6600;51.362;6.686;2023-02-10T08:24:49;103320.66;;;2.88;100.00
13068;BME280;6600;51.362;6.686;2023-02-10T08:27:15;103321.09;;;2.94;100.00
13068;BME280;6600;51.362;6.686;2023-02-10T08:29:40;103325.09;;;3.00;100.00
13068;BME280;6600;51.362;6.686;2023-02-10T08:32:05;103328.53;;;3.02;100.00
13068;BME280;6600;51.362;6.686;2023-02-10T08:34:31;103329.38;;;3.15;100.00
13068;BME280;6600;51.362;6.686;2023-02-10T08:36:56;103322.00;;;3.20;100.00
13068;BME280;6600;51.362;6.686;2023-02-10T08:39:22;103317.97;;;3.27;100.00
13068;BME280;6600;51.362;6.686;2023-02-10T08:41:47;103322.84;;;3.33;100.00
13068;BME280;6600;51.362;6.686;2023-02-10T08:44:13;103329.63;;;3.37;100.00
13068;BME280;6600;51.362;6.686;2023-02-10T08:46:39;103333.00;;;3.52;100.00
13068;BME280;6600;51.362;6.686;2023-02-10T08:49:04;103332.81;;;3.68;100.00
13068;BME280;6600;51.362;6.686;2023-02-10T08:51:30;103333.31;;;3.73;100.00
13068;BME280;6600;51.362;6.686;2023-02-10T08:53:59;103335.97;;;3.73;100.00
13068;BME280;6600;51.362;6.686;2023-02-10T08:56:24;103328.66;;;3.89;100.00
13068;BME280;6600;51.362;6.686;2023-02-10T08:58:50;103328.94;;;3.97;100.00
13068;BME280;6600;51.362;6.686;2023-02-10T09:01:21;103337.00;;;4.08;100.00
13068;BME280;6600;51.362;6.686;2023-02-10T09:03:47;103333.06;;;4.14;100.00
13068;BME280;6600;51.362;6.686;2023-02-10T09:06:20;103332.81;;;4.29;100.00
13068;BME280;6600;51.362;6.686;2023-02-10T09:08:46;103342.53;;;4.41;100.00
13068;BME280;6600;51.362;6.686;2023-02-10T09:11:13;103345.69;;;4.46;100.00
13068;BME280;6600;51.362;6.686;2023-02-10T09:13:39;103349.06;;;4.61;100.00
13068;BME280;6600;51.362;6.686;2023-02-10T09:16:04;103341.31;;;4.82;100.00
13068;BME280;6600;51.362;6.686;2023-02-10T09:18:30;103345.44;;;4.86;100.00
13068;BME280;6600;51.362;6.686;2023-02-10T09:20:57;103351.06;;;5.05;100.00
13068;BME280;6600;51.362;6.686;2023-02-10T09:23:22;103350.44;;;5.01;100.00
13068;BME280;6600;51.362;6.686;2023-02-10T09:25:55;103354.44;;;5.07;100.00
13068;BME280;6600;51.362;6.686;2023-02-10T09:28:21;103356.13;;;5.08;100.00
13068;BME280;6600;51.362;6.686;2023-02-10T09:30:47;103352.06;;;5.15;100.00
13068;BME280;6600;51.362;6.686;2023-02-10T09:33:13;103352.09;;;5.26;100.00
13068;BME280;6600;51.362;6.686;2023-02-10T09:35:38;103359.59;;;5.32;100.00
13068;BME280;6600;51.362;6.686;2023-02-10T09:38:05;103348.50;;;5.38;100.00
13068;BME280;6600;51.362;6.686;2023-02-10T09:40:34;103361.94;;;5.48;100.00
13068;BME280;6600;51.362;6.686;2023-02-10T09:43:19;103367.16;;;5.60;100.00
13068;BME280;6600;51.362;6.686;2023-02-10T09:45:59;103362.31;;;5.66;100.00
13068;BME280;6600;51.362;6.686;2023-02-10T09:49:12;103365.75;;;5.90;100.00
13068;BME280;6600;51.362;6.686;2023-02-10T09:54:27;103353.19;;;5.92;100.00
13068;BME280;6600;51.362;6.686;2023-02-10T09:56:58;103347.63;;;5.95;100.00
13068;BME280;6600;51.362;6.686;2023-02-10T09:59:27;103345.44;;;6.00;100.00
13068;BME280;6600;51.362;6.686;2023-02-10T10:01:57;103346.19;;;6.02;100.00
13068;BME280;6600;51.362;6.686;2023-02-10T10:04:26;103339.75;;;5.93;100.00
13068;BME280;6600;51.362;6.686;2023-02-10T10:06:56;103350.03;;;6.09;100.00
13068;BME280;6600;51.362;6.686;2023-02-10T10:09:37;103353.53;;;6.21;100.00
13068;BME280;6600;51.362;6.686;2023-02-10T10:12:08;103347.38;;;6.20;100.00
13068;BME280;6600;51.362;6.686;2023-02-10T10:14:39;103353.00;;;6.38;100.00
13068;BME280;6600;51.362;6.686;2023-02-10T10:17:37;103356.06;;;6.44;100.00
13068;BME280;6600;51.362;6.686;2023-02-10T10:20:25;103355.56;;;6.50;100.00
13068;BME280;6600;51.362;6.686;2023-02-10T10:25:55;103350.47;;;6.47;100.00
13068;BME280;6600;51.362;6.686;2023-02-10T10:28:47;103353.81;;;6.60;100.00
13068;BME280;6600;51.362;6.686;2023-02-10T10:31:17;103362.66;;;6.72;100.00
13068;BME280;6600;51.362;6.686;2023-02-10T10:33:56;103362.72;;;6.82;100.00
13068;BME280;6600;51.362;6.686;2023-02-10T10:36:38;103364.88;;;6.88;100.00
13068;BME280;6600;51.362;6.686;2023-02-10T10:39:33;103358.34;;;6.81;100.00
13068;BME280;6600;51.362;6.686;2023-02-10T10:41:57;103358.94;;;6.84;100.00
13068;BME280;6600;51.362;6.686;2023-02-10T10:44:26;103360.69;;;7.06;100.00
13068;BME280;6600;51.362;6.686;2023-02-10T10:47:06;103348.13;;;6.97;100.00
13068;BME280;6600;51.362;6.686;2023-02-10T10:49:36;103353.41;;;7.08;100.00
13068;BME280;6600;51.362;6.686;2023-02-10T10:52:29;103356.13;;;7.18;100.00
13068;BME280;6600;51.362;6.686;2023-02-10T10:54:54;103365.72;;;7.20;99.24
13068;BME280;6600;51.362;6.686;2023-02-10T10:57:20;103364.56;;;7.34;99.28
13068;BME280;6600;51.362;6.686;2023-02-10T10:59:49;103359.13;;;7.45;98.53
13068;BME280;6600;51.362;6.686;2023-02-10T11:02:19;103350.16;;;7.46;98.39
13068;BME280;6600;51.362;6.686;2023-02-10T11:04:45;103349.69;;;7.61;98.21
13068;BME280;6600;51.362;6.686;2023-02-10T11:07:19;103341.59;;;7.73;97.58
13068;BME280;6600;51.362;6.686;2023-02-10T11:09:53;103342.44;;;7.73;96.73
13068;BME280;6600;51.362;6.686;2023-02-10T11:12:28;103337.13;;;7.83;96.25
13068;BME280;6600;51.362;6.686;2023-02-10T11:14:55;103338.56;;;7.87;96.74
13068;BME280;6600;51.362;6.686;2023-02-10T11:17:32;103341.69;;;7.92;95.92
13068;BME280;6600;51.362;6.686;2023-02-10T11:22:27;103333.22;;;7.87;94.57
13068;BME280;6600;51.362;6.686;2023-02-10T11:25:02;103329.31;;;7.91;94.50
13068;BME280;6600;51.362;6.686;2023-02-10T11:27:28;103328.78;;;7.97;93.88
13068;BME280;6600;51.362;6.686;2023-02-10T11:29:57;103322.91;;;8.03;93.21
13068;BME280;6600;51.362;6.686;2023-02-10T11:32:34;103314.34;;;8.09;92.34
13068;BME280;6600;51.362;6.686;2023-02-10T11:35:02;103320.13;;;8.14;92.38
13068;BME280;6600;51.362;6.686;2023-02-10T11:37:34;103308.91;;;8.20;92.17
13068;BME280;6600;51.362;6.686;2023-02-10T11:40:16;103313.19;;;8.32;92.17
13068;BME280;6600;51.362;6.686;2023-02-10T11:42:46;103309.66;;;8.41;91.70
13068;BME280;6600;51.362;6.686;2023-02-10T11:45:18;103305.34;;;8.59;91.58
13068;BME280;6600;51.362;6.686;2023-02-10T11:47:45;103300.84;;;8.70;90.46
13068;BME280;6600;51.362;6.686;2023-02-10T11:50:26;103309.44;;;8.63;89.50
13068;BME280;6600;51.362;6.686;2023-02-10T11:52:52;103302.81;;;8.68;89.91
13068;BME280;6600;51.362;6.686;2023-02-10T11:55:17;103305.94;;;8.82;90.05
13068;BME280;6600;51.362;6.686;2023-02-10T11:57:55;103300.84;;;8.79;88.84
13068;BME280;6600;51.362;6.686;2023-02-10T12:00:47;103291.84;;;8.80;87.20
13068;BME280;6600;51.362;6.686;2023-02-10T12:03:53;103290.69;;;8.83;87.47
13068;BME280;6600;51.362;6.686;2023-02-10T12:06:47;103288.47;;;8.78;87.42
13068;BME280;6600;51.362;6.686;2023-02-10T12:12:40;103275.66;;;8.91;87.19
13068;BME280;6600;51.362;6.686;2023-02-10T12:18:12;103263.00;;;8.84;83.48
13068;BME280;6600;51.362;6.686;2023-02-10T12:21:12;103250.59;;;8.83;83.12
13068;BME280;6600;51.362;6.686;2023-02-10T12:26:33;103239.91;;;9.02;83.08
13068;BME280;6600;51.362;6.686;2023-02-10T12:29:07;103235.56;;;8.91;83.62
13068;BME280;6600;51.362;6.686;2023-02-10T12:37:44;103229.50;;;8.99;81.75
13068;BME280;6600;51.362;6.686;2023-02-10T12:46:17;103237.19;;;9.11;84.07
13068;BME280;6600;51.362;6.686;2023-02-10T12:54:17;103223.41;;;8.97;83.59
13068;BME280;6600;51.362;6.686;2023-02-10T12:56:50;103220.88;;;9.05;83.94
13068;BME280;6600;51.362;6.686;2023-02-10T12:59:28;103223.13;;;9.00;84.24
13068;BME280;6600;51.362;6.686;2023-02-10T13:02:06;103226.53;;;8.83;83.90
13068;BME280;6600;51.362;6.686;2023-02-10T13:04:38;103229.41;;;8.72;84.40
13068;BME280;6600;51.362;6.686;2023-02-10T13:07:28;103225.44;;;8.56;85.66
13068;BME280;6600;51.362;6.686;2023-02-10T13:12:53;103220.38;;;8.53;85.22
13068;BME280;6600;51.362;6.686;2023-02-10T13:15:29;103221.09;;;8.55;85.75
13068;BME280;6600;51.362;6.686;2023-02-10T13:17:57;103223.91;;;8.63;85.84
13068;BME280;6600;51.362;6.686;2023-02-10T13:20:42;103222.06;;;8.74;85.91
13068;BME280;6600;51.362;6.686;2023-02-10T13:23:34;103210.25;;;8.67;85.51
13068;BME280;6600;51.362;6.686;2023-02-10T13:28:54;103196.88;;;8.86;85.68
13068;BME280;6600;51.362;6.686;2023-02-10T13:31:47;103196.41;;;8.90;85.21
13068;BME280;6600;51.362;6.686;2023-02-10T13:34:26;103202.31;;;8.94;84.94
13068;BME280;6600;51.362;6.686;2023-02-10T13:39:30;103200.91;;;8.90;84.20
13068;BME280;6600;51.362;6.686;2023-02-10T13:42:29;103195.31;;;8.93;83.14
13068;BME280;6600;51.362;6.686;2023-02-10T13:45:14;103189.25;;;8.91;82.73
13068;BME280;6600;51.362;6.686;2023-02-10T13:47:52;103185.72;;;8.90;82.49
13068;BME280;6600;51.362;6.686;2023-02-10T13:53:05;103186.00;;;8.97;82.24
13068;BME280;6600;51.362;6.686;2023-02-10T13:58:17;103165.69;;;9.04;83.02
13068;BME280;6600;51.362;6.686;2023-02-10T14:06:04;103163.22;;;9.30;83.74
13068;BME280;6600;51.362;6.686;2023-02-10T14:08:36;103162.50;;;9.37;82.57
13068;BME280;6600;51.362;6.686;2023-02-10T14:13:30;103172.09;;;9.30;81.74
13068;BME280;6600;51.362;6.686;2023-02-10T14:16:02;103174.22;;;9.17;81.34
13068;BME280;6600;51.362;6.686;2023-02-10T14:18:31;103175.53;;;9.13;81.23
13068;BME280;6600;51.362;6.686;2023-02-10T14:21:01;103173.00;;;9.11;81.67
13068;BME280;6600;51.362;6.686;2023-02-10T14:23:30;103164.53;;;9.16;80.92